sensor_id;sensor_type;location;lat;lon;timestamp;P1;durP1;ratioP1;P2;durP2;ratioP2
23573;SDS011;11965;53.640;10.050;2022-12-17T00:00:19;129.76;;;126.78;;
23573;SDS011;11965;53.640;10.050;2022-12-17T00:03:04;127.53;;;125.05;;
23573;SDS011;11965;53.640;10.050;2022-12-17T00:05:50;127.06;;;124.66;;
23573;SDS011;11965;53.640;10.050;2022-12-17T00:08:36;126.34;;;123.41;;
23573;SDS011;11965;53.640;10.050;2022-12-17T00:11:21;125.78;;;123.46;;
23573;SDS011;11965;53.640;10.050;2022-12-17T00:14:05;124.66;;;122.16;;
23573;SDS011;11965;53.640;10.050;2022-12-17T00:16:50;124.54;;;121.56;;
23573;SDS011;11965;53.640;10.050;2022-12-17T00:19:34;125.92;;;123.09;;
23573;SDS011;11965;53.640;10.050;2022-12-17T00:22:19;124.89;;;122.15;;
23573;SDS011;11965;53.640;10.050;2022-12-17T00:25:05;125.19;;;122.26;;
23573;SDS011;11965;53.640;10.050;2022-12-17T00:27:49;126.15;;;123.59;;
23573;SDS011;11965;53.640;10.050;2022-12-17T00:30:34;124.50;;;121.77;;
23573;SDS011;11965;53.640;10.050;2022-12-17T00:33:18;122.67;;;120.00;;
23573;SDS011;11965;53.640;10.050;2022-12-17T00:36:03;121.93;;;119.24;;
23573;SDS011;11965;53.640;10.050;2022-12-17T00:38:47;122.04;;;119.19;;
23573;SDS011;11965;53.640;10.050;2022-12-17T00:41:33;118.80;;;116.37;;
23573;SDS011;11965;53.640;10.050;2022-12-17T00:44:17;120.88;;;118.45;;
23573;SDS011;11965;53.640;10.050;2022-12-17T00:47:01;117.92;;;115.92;;
23573;SDS011;11965;53.640;10.050;2022-12-17T00:49:47;118.47;;;115.78;;
23573;SDS011;11965;53.640;10.050;2022-12-17T00:52:31;122.50;;;119.78;;
23573;SDS011;11965;53.640;10.050;2022-12-17T00:55:16;124.48;;;121.56;;
23573;SDS011;11965;53.640;10.050;2022-12-17T00:58:02;126.19;;;123.33;;
23573;SDS011;11965;53.640;10.050;2022-12-17T01:00:46;123.85;;;121.64;;
23573;SDS011;11965;53.640;10.050;2022-12-17T01:03:31;124.38;;;121.40;;
23573;SDS011;11965;53.640;10.050;2022-12-17T01:06:15;127.18;;;124.24;;
23573;SDS011;11965;53.640;10.050;2022-12-17T01:09:00;125.87;;;123.27;;
23573;SDS011;11965;53.640;10.050;2022-12-17T01:11:46;124.75;;;121.31;;
23573;SDS011;11965;53.640;10.050;2022-12-17T01:14:31;125.85;;;122.75;;
23573;SDS011;11965;53.640;10.050;2022-12-17T01:17:16;120.30;;;118.17;;
23573;SDS011;11965;53.640;10.050;2022-12-17T01:20:00;118.99;;;116.01;;
23573;SDS011;11965;53.640;10.050;2022-12-17T01:22:45;113.50;;;111.37;;
23573;SDS011;11965;53.640;10.050;2022-12-17T01:25:30;113.74;;;111.15;;
23573;SDS011;11965;53.640;10.050;2022-12-17T01:28:19;115.51;;;112.54;;
23573;SDS011;11965;53.640;10.050;2022-12-17T01:31:07;114.14;;;111.83;;
23573;SDS011;11965;53.640;10.050;2022-12-17T01:33:52;114.20;;;111.65;;
23573;SDS011;11965;53.640;10.050;2022-12-17T01:36:36;113.53;;;111.01;;
23573;SDS011;11965;53.640;10.050;2022-12-17T01:39:21;114.60;;;112.10;;
23573;SDS011;11965;53.640;10.050;2022-12-17T01:42:08;113.06;;;110.51;;
23573;SDS011;11965;53.640;10.050;2022-12-17T01:44:54;112.01;;;109.12;;
23573;SDS011;11965;53.640;10.050;2022-12-17T01:47:43;111.39;;;108.86;;
23573;SDS011;11965;53.640;10.050;2022-12-17T01:50:33;111.45;;;108.62;;
23573;SDS011;11965;53.640;10.050;2022-12-17T01:53:23;105.70;;;103.68;;
23573;SDS011;11965;53.640;10.050;2022-12-17T01:56:12;108.32;;;106.11;;
23573;SDS011;11965;53.640;10.050;2022-12-17T01:59:05;110.08;;;107.59;;
23573;SDS011;11965;53.640;10.050;2022-12-17T02:01:52;109.31;;;106.87;;
23573;SDS011;11965;53.640;10.050;2022-12-17T02:04:38;108.60;;;106.36;;
23573;SDS011;11965;53.640;10.050;2022-12-17T02:07:26;109.34;;;107.37;;
23573;SDS011;11965;53.640;10.050;2022-12-17T02:10:24;108.48;;;106.19;;
23573;SDS011;11965;53.640;10.050;2022-12-17T02:13:19;106.83;;;104.39;;
23573;SDS011;11965;53.640;10.050;2022-12-17T02:16:08;106.59;;;104.57;;
23573;SDS011;11965;53.640;10.050;2022-12-17T02:19:00;107.32;;;104.61;;
23573;SDS011;11965;53.640;10.050;2022-12-17T02:21:54;104.56;;;102.25;;
23573;SDS011;11965;53.640;10.050;2022-12-17T02:24:53;104.34;;;102.02;;
23573;SDS011;11965;53.640;10.050;2022-12-17T02:27:47;104.04;;;101.65;;
23573;SDS011;11965;53.640;10.050;2022-12-17T02:30:31;103.62;;;101.35;;
23573;SDS011;11965;53.640;10.050;2022-12-17T02:33:18;103.85;;;101.41;;
23573;SDS011;11965;53.640;10.050;2022-12-17T02:36:05;107.48;;;104.56;;
23573;SDS011;11965;53.640;10.050;2022-12-17T02:38:51;106.78;;;104.53;;
23573;SDS011;11965;53.640;10.050;2022-12-17T02:41:38;107.03;;;104.44;;
23573;SDS011;11965;53.640;10.050;2022-12-17T02:44:28;106.63;;;103.87;;
23573;SDS011;11965;53.640;10.050;2022-12-17T02:47:15;105.00;;;102.88;;
23573;SDS011;11965;53.640;10.050;2022-12-17T02:50:04;103.69;;;101.64;;
23573;SDS011;11965;53.640;10.050;2022-12-17T02:52:49;102.76;;;100.38;;
23573;SDS011;11965;53.640;10.050;2022-12-17T02:55:34;102.48;;;99.97;;
23573;SDS011;11965;53.640;10.050;2022-12-17T02:58:20;102.30;;;100.04;;
23573;SDS011;11965;53.640;10.050;2022-12-17T03:01:06;101.54;;;99.35;;
23573;SDS011;11965;53.640;10.050;2022-12-17T03:03:50;99.50;;;97.33;;
23573;SDS011;11965;53.640;10.050;2022-12-17T03:06:35;99.12;;;96.85;;
23573;SDS011;11965;53.640;10.050;2022-12-17T03:09:19;98.87;;;96.62;;
23573;SDS011;11965;53.640;10.050;2022-12-17T03:12:04;99.88;;;97.65;;
23573;SDS011;11965;53.640;10.050;2022-12-17T03:14:48;98.00;;;96.06;;
23573;SDS011;11965;53.640;10.050;2022-12-17T03:17:34;98.66;;;96.38;;
23573;SDS011;11965;53.640;10.050;2022-12-17T03:20:19;98.58;;;96.23;;
23573;SDS011;11965;53.640;10.050;2022-12-17T03:23:03;98.02;;;96.34;;
23573;SDS011;11965;53.640;10.050;2022-12-17T03:25:50;98.54;;;96.38;;
23573;SDS011;11965;53.640;10.050;2022-12-17T03:28:35;98.15;;;95.94;;
23573;SDS011;11965;53.640;10.050;2022-12-17T03:31:20;97.27;;;94.84;;
23573;SDS011;11965;53.640;10.050;2022-12-17T03:34:07;98.22;;;96.27;;
23573;SDS011;11965;53.640;10.050;2022-12-17T03:36:51;97.97;;;95.95;;
23573;SDS011;11965;53.640;10.050;2022-12-17T03:39:35;97.08;;;94.89;;
23573;SDS011;11965;53.640;10.050;2022-12-17T03:42:20;97.21;;;94.84;;
23573;SDS011;11965;53.640;10.050;2022-12-17T03:45:05;97.43;;;95.32;;
23573;SDS011;11965;53.640;10.050;2022-12-17T03:47:50;95.92;;;93.71;;
23573;SDS011;11965;53.640;10.050;2022-12-17T03:50:35;94.03;;;92.14;;
23573;SDS011;11965;53.640;10.050;2022-12-17T03:53:25;93.10;;;90.82;;
23573;SDS011;11965;53.640;10.050;2022-12-17T03:56:10;91.38;;;89.88;;
23573;SDS011;11965;53.640;10.050;2022-12-17T03:58:54;92.81;;;90.94;;
23573;SDS011;11965;53.640;10.050;2022-12-17T04:01:35;91.43;;;89.46;;
23573;SDS011;11965;53.640;10.050;2022-12-17T04:04:19;94.82;;;92.49;;
23573;SDS011;11965;53.640;10.050;2022-12-17T04:07:05;93.51;;;91.49;;
23573;SDS011;11965;53.640;10.050;2022-12-17T04:09:49;93.03;;;90.82;;
23573;SDS011;11965;53.640;10.050;2022-12-17T04:12:34;91.19;;;89.02;;
23573;SDS011;11965;53.640;10.050;2022-12-17T04:15:18;91.79;;;89.65;;
23573;SDS011;11965;53.640;10.050;2022-12-17T04:18:03;91.95;;;89.87;;
23573;SDS011;11965;53.640;10.050;2022-12-17T04:20:47;92.31;;;90.56;;
23573;SDS011;11965;53.640;10.050;2022-12-17T04:23:33;92.65;;;90.55;;
23573;SDS011;11965;53.640;10.050;2022-12-17T04:26:17;91.19;;;89.48;;
23573;SDS011;11965;53.640;10.050;2022-12-17T04:29:02;92.38;;;90.48;;
23573;SDS011;11965;53.640;10.050;2022-12-17T04:31:46;92.34;;;90.33;;
23573;SDS011;11965;53.640;10.050;2022-12-17T04:34:31;94.12;;;91.85;;
23573;SDS011;11965;53.640;10.050;2022-12-17T04:37:16;92.65;;;90.67;;
23573;SDS011;11965;53.640;10.050;2022-12-17T04:40:02;93.26;;;91.04;;
23573;SDS011;11965;53.640;10.050;2022-12-17T04:42:46;93.42;;;91.39;;
23573;SDS011;11965;53.640;10.050;2022-12-17T04:45:31;94.63;;;92.16;;
23573;SDS011;11965;53.640;10.050;2022-12-17T04:48:15;91.65;;;89.83;;
23573;SDS011;11965;53.640;10.050;2022-12-17T04:51:00;90.89;;;89.21;;
23573;SDS011;11965;53.640;10.050;2022-12-17T04:53:44;88.73;;;87.09;;
23573;SDS011;11965;53.640;10.050;2022-12-17T04:56:30;90.23;;;88.97;;
23573;SDS011;11965;53.640;10.050;2022-12-17T04:59:14;92.26;;;90.20;;
23573;SDS011;11965;53.640;10.050;2022-12-17T05:01:59;89.34;;;87.29;;
23573;SDS011;11965;53.640;10.050;2022-12-17T05:04:51;89.20;;;87.25;;
23573;SDS011;11965;53.640;10.050;2022-12-17T05:07:36;87.85;;;86.06;;
23573;SDS011;11965;53.640;10.050;2022-12-17T05:10:26;89.93;;;87.54;;
23573;SDS011;11965;53.640;10.050;2022-12-17T05:13:12;88.82;;;87.04;;
23573;SDS011;11965;53.640;10.050;2022-12-17T05:15:56;88.65;;;86.77;;
23573;SDS011;11965;53.640;10.050;2022-12-17T05:18:41;87.87;;;85.76;;
23573;SDS011;11965;53.640;10.050;2022-12-17T05:21:26;87.46;;;85.39;;
23573;SDS011;11965;53.640;10.050;2022-12-17T05:24:10;85.90;;;83.66;;
23573;SDS011;11965;53.640;10.050;2022-12-17T05:26:55;86.81;;;85.01;;
23573;SDS011;11965;53.640;10.050;2022-12-17T05:29:41;87.25;;;85.47;;
23573;SDS011;11965;53.640;10.050;2022-12-17T05:32:25;87.74;;;85.59;;
23573;SDS011;11965;53.640;10.050;2022-12-17T05:35:09;86.76;;;84.94;;
23573;SDS011;11965;53.640;10.050;2022-12-17T05:37:54;86.92;;;84.99;;
23573;SDS011;11965;53.640;10.050;2022-12-17T05:40:38;87.30;;;85.22;;
23573;SDS011;11965;53.640;10.050;2022-12-17T05:43:34;85.60;;;83.99;;
23573;SDS011;11965;53.640;10.050;2022-12-17T05:46:20;85.77;;;83.79;;
23573;SDS011;11965;53.640;10.050;2022-12-17T05:49:09;86.61;;;84.76;;
23573;SDS011;11965;53.640;10.050;2022-12-17T05:51:54;84.71;;;82.52;;
23573;SDS011;11965;53.640;10.050;2022-12-17T05:54:38;83.66;;;81.52;;
23573;SDS011;11965;53.640;10.050;2022-12-17T05:57:23;82.31;;;80.36;;
23573;SDS011;11965;53.640;10.050;2022-12-17T06:00:08;80.92;;;78.87;;
23573;SDS011;11965;53.640;10.050;2022-12-17T06:02:57;81.59;;;79.58;;
23573;SDS011;11965;53.640;10.050;2022-12-17T06:05:42;82.60;;;80.55;;
23573;SDS011;11965;53.640;10.050;2022-12-17T06:08:26;79.95;;;78.29;;
23573;SDS011;11965;53.640;10.050;2022-12-17T06:11:25;79.67;;;77.78;;
23573;SDS011;11965;53.640;10.050;2022-12-17T06:14:10;78.72;;;77.09;;
23573;SDS011;11965;53.640;10.050;2022-12-17T06:16:54;77.39;;;75.51;;
23573;SDS011;11965;53.640;10.050;2022-12-17T06:19:40;77.47;;;75.67;;
23573;SDS011;11965;53.640;10.050;2022-12-17T06:22:24;79.18;;;77.07;;
23573;SDS011;11965;53.640;10.050;2022-12-17T06:25:09;78.45;;;76.57;;
23573;SDS011;11965;53.640;10.050;2022-12-17T06:28:08;77.16;;;75.89;;
23573;SDS011;11965;53.640;10.050;2022-12-17T06:30:53;77.05;;;75.16;;
23573;SDS011;11965;53.640;10.050;2022-12-17T06:33:43;73.92;;;72.39;;
23573;SDS011;11965;53.640;10.050;2022-12-17T06:36:29;71.94;;;70.51;;
23573;SDS011;11965;53.640;10.050;2022-12-17T06:39:21;75.90;;;74.08;;
23573;SDS011;11965;53.640;10.050;2022-12-17T06:42:06;78.40;;;76.56;;
23573;SDS011;11965;53.640;10.050;2022-12-17T06:44:50;77.80;;;75.91;;
23573;SDS011;11965;53.640;10.050;2022-12-17T06:47:35;77.30;;;75.83;;
23573;SDS011;11965;53.640;10.050;2022-12-17T06:50:19;75.61;;;73.89;;
23573;SDS011;11965;53.640;10.050;2022-12-17T06:53:10;74.21;;;72.59;;
23573;SDS011;11965;53.640;10.050;2022-12-17T06:55:55;74.09;;;72.32;;
23573;SDS011;11965;53.640;10.050;2022-12-17T06:58:41;73.31;;;72.05;;
23573;SDS011;11965;53.640;10.050;2022-12-17T07:01:26;73.41;;;71.84;;
23573;SDS011;11965;53.640;10.050;2022-12-17T07:04:10;73.78;;;72.05;;
23573;SDS011;11965;53.640;10.050;2022-12-17T07:06:55;72.64;;;71.03;;
23573;SDS011;11965;53.640;10.050;2022-12-17T07:09:41;74.00;;;72.08;;
23573;SDS011;11965;53.640;10.050;2022-12-17T07:12:25;72.10;;;70.30;;
23573;SDS011;11965;53.640;10.050;2022-12-17T07:15:09;71.92;;;70.20;;
23573;SDS011;11965;53.640;10.050;2022-12-17T07:17:54;69.96;;;68.55;;
23573;SDS011;11965;53.640;10.050;2022-12-17T07:20:39;70.97;;;69.31;;
23573;SDS011;11965;53.640;10.050;2022-12-17T07:23:24;69.64;;;67.82;;
23573;SDS011;11965;53.640;10.050;2022-12-17T07:26:10;69.16;;;67.76;;
23573;SDS011;11965;53.640;10.050;2022-12-17T07:28:55;68.19;;;66.67;;
23573;SDS011;11965;53.640;10.050;2022-12-17T07:31:39;69.67;;;67.91;;
23573;SDS011;11965;53.640;10.050;2022-12-17T07:34:32;67.81;;;66.29;;
23573;SDS011;11965;53.640;10.050;2022-12-17T07:37:16;66.85;;;65.57;;
23573;SDS011;11965;53.640;10.050;2022-12-17T07:40:01;68.10;;;66.79;;
23573;SDS011;11965;53.640;10.050;2022-12-17T07:42:47;68.71;;;67.10;;
23573;SDS011;11965;53.640;10.050;2022-12-17T07:45:31;70.51;;;68.67;;
23573;SDS011;11965;53.640;10.050;2022-12-17T07:48:16;69.20;;;67.55;;
23573;SDS011;11965;53.640;10.050;2022-12-17T07:51:00;69.00;;;67.45;;
23573;SDS011;11965;53.640;10.050;2022-12-17T07:53:44;68.10;;;66.54;;
23573;SDS011;11965;53.640;10.050;2022-12-17T07:56:29;67.61;;;66.14;;
23573;SDS011;11965;53.640;10.050;2022-12-17T07:59:15;67.31;;;65.46;;
23573;SDS011;11965;53.640;10.050;2022-12-17T08:01:59;68.11;;;66.30;;
23573;SDS011;11965;53.640;10.050;2022-12-17T08:04:44;66.89;;;64.89;;
23573;SDS011;11965;53.640;10.050;2022-12-17T08:07:29;66.76;;;65.03;;
23573;SDS011;11965;53.640;10.050;2022-12-17T08:10:13;65.19;;;63.90;;
23573;SDS011;11965;53.640;10.050;2022-12-17T08:12:58;63.89;;;62.37;;
23573;SDS011;11965;53.640;10.050;2022-12-17T08:15:46;65.51;;;64.53;;
23573;SDS011;11965;53.640;10.050;2022-12-17T08:18:36;68.72;;;66.98;;
23573;SDS011;11965;53.640;10.050;2022-12-17T08:21:20;65.52;;;64.15;;
23573;SDS011;11965;53.640;10.050;2022-12-17T08:24:05;66.21;;;64.65;;
23573;SDS011;11965;53.640;10.050;2022-12-17T08:26:49;67.38;;;65.89;;
23573;SDS011;11965;53.640;10.050;2022-12-17T08:29:34;65.48;;;64.28;;
23573;SDS011;11965;53.640;10.050;2022-12-17T08:32:20;63.18;;;62.40;;
23573;SDS011;11965;53.640;10.050;2022-12-17T08:35:04;62.55;;;61.20;;
23573;SDS011;11965;53.640;10.050;2022-12-17T08:37:48;62.03;;;61.20;;
23573;SDS011;11965;53.640;10.050;2022-12-17T08:40:29;63.16;;;61.88;;
23573;SDS011;11965;53.640;10.050;2022-12-17T08:43:14;60.39;;;59.69;;
23573;SDS011;11965;53.640;10.050;2022-12-17T08:45:58;59.94;;;58.81;;
23573;SDS011;11965;53.640;10.050;2022-12-17T08:48:44;60.12;;;58.88;;
23573;SDS011;11965;53.640;10.050;2022-12-17T08:51:28;60.26;;;58.87;;
23573;SDS011;11965;53.640;10.050;2022-12-17T08:54:13;57.65;;;56.68;;
23573;SDS011;11965;53.640;10.050;2022-12-17T08:56:57;60.30;;;58.64;;
23573;SDS011;11965;53.640;10.050;2022-12-17T08:59:42;58.95;;;57.93;;
23573;SDS011;11965;53.640;10.050;2022-12-17T09:02:26;58.87;;;57.56;;
23573;SDS011;11965;53.640;10.050;2022-12-17T09:05:12;59.16;;;58.07;;
23573;SDS011;11965;53.640;10.050;2022-12-17T09:07:57;59.77;;;58.25;;
23573;SDS011;11965;53.640;10.050;2022-12-17T09:10:42;57.62;;;56.21;;
23573;SDS011;11965;53.640;10.050;2022-12-17T09:13:27;58.11;;;56.68;;
23573;SDS011;11965;53.640;10.050;2022-12-17T09:16:11;57.88;;;56.41;;
23573;SDS011;11965;53.640;10.050;2022-12-17T09:18:56;58.92;;;57.58;;
23573;SDS011;11965;53.640;10.050;2022-12-17T09:21:42;59.17;;;57.69;;
23573;SDS011;11965;53.640;10.050;2022-12-17T09:24:26;58.47;;;57.09;;
23573;SDS011;11965;53.640;10.050;2022-12-17T09:27:11;59.04;;;58.02;;
23573;SDS011;11965;53.640;10.050;2022-12-17T09:29:55;60.73;;;59.63;;
23573;SDS011;11965;53.640;10.050;2022-12-17T09:32:39;62.13;;;60.58;;
23573;SDS011;11965;53.640;10.050;2022-12-17T09:35:24;63.31;;;61.58;;
23573;SDS011;11965;53.640;10.050;2022-12-17T09:38:11;63.58;;;62.23;;
23573;SDS011;11965;53.640;10.050;2022-12-17T09:40:58;63.71;;;62.33;;
23573;SDS011;11965;53.640;10.050;2022-12-17T09:43:51;61.29;;;60.07;;
23573;SDS011;11965;53.640;10.050;2022-12-17T09:46:46;62.41;;;61.51;;
23573;SDS011;11965;53.640;10.050;2022-12-17T09:49:47;62.52;;;61.16;;
23573;SDS011;11965;53.640;10.050;2022-12-17T09:52:33;63.07;;;61.71;;
23573;SDS011;11965;53.640;10.050;2022-12-17T09:55:24;62.75;;;61.40;;
23573;SDS011;11965;53.640;10.050;2022-12-17T09:58:20;61.50;;;60.69;;
23573;SDS011;11965;53.640;10.050;2022-12-17T10:01:09;60.63;;;59.54;;
23573;SDS011;11965;53.640;10.050;2022-12-17T10:03:59;60.53;;;59.44;;
23573;SDS011;11965;53.640;10.050;2022-12-17T10:06:45;60.43;;;59.08;;
23573;SDS011;11965;53.640;10.050;2022-12-17T10:09:29;58.38;;;56.78;;
23573;SDS011;11965;53.640;10.050;2022-12-17T10:12:18;58.59;;;57.46;;
23573;SDS011;11965;53.640;10.050;2022-12-17T10:15:04;57.49;;;56.05;;
23573;SDS011;11965;53.640;10.050;2022-12-17T10:18:01;56.33;;;55.70;;
23573;SDS011;11965;53.640;10.050;2022-12-17T10:20:51;56.54;;;55.47;;
23573;SDS011;11965;53.640;10.050;2022-12-17T10:23:37;57.92;;;56.96;;
23573;SDS011;11965;53.640;10.050;2022-12-17T10:26:22;56.58;;;55.88;;
23573;SDS011;11965;53.640;10.050;2022-12-17T10:29:13;57.55;;;56.35;;
23573;SDS011;11965;53.640;10.050;2022-12-17T10:32:08;58.34;;;57.00;;
23573;SDS011;11965;53.640;10.050;2022-12-17T10:34:56;57.65;;;56.31;;
23573;SDS011;11965;53.640;10.050;2022-12-17T10:37:41;58.01;;;57.57;;
23573;SDS011;11965;53.640;10.050;2022-12-17T10:40:27;61.03;;;60.77;;
23573;SDS011;11965;53.640;10.050;2022-12-17T10:43:21;53.06;;;52.47;;
23573;SDS011;11965;53.640;10.050;2022-12-17T10:46:08;51.63;;;51.03;;
23573;SDS011;11965;53.640;10.050;2022-12-17T10:49:03;48.53;;;47.97;;
23573;SDS011;11965;53.640;10.050;2022-12-17T10:51:57;46.02;;;45.72;;
23573;SDS011;11965;53.640;10.050;2022-12-17T10:54:53;44.62;;;44.32;;
23573;SDS011;11965;53.640;10.050;2022-12-17T10:57:39;43.33;;;42.62;;
23573;SDS011;11965;53.640;10.050;2022-12-17T11:00:26;40.29;;;40.02;;
23573;SDS011;11965;53.640;10.050;2022-12-17T11:06:33;60.65;;;58.81;;
23573;SDS011;11965;53.640;10.050;2022-12-17T11:12:29;40.57;;;39.99;;
23573;SDS011;11965;53.640;10.050;2022-12-17T11:15:21;39.97;;;39.20;;
23573;SDS011;11965;53.640;10.050;2022-12-17T11:18:12;39.43;;;39.19;;
23573;SDS011;11965;53.640;10.050;2022-12-17T11:21:05;39.34;;;39.31;;
23573;SDS011;11965;53.640;10.050;2022-12-17T11:23:55;37.78;;;37.73;;
23573;SDS011;11965;53.640;10.050;2022-12-17T11:26:44;36.79;;;36.67;;
23573;SDS011;11965;53.640;10.050;2022-12-17T11:29:36;37.81;;;37.21;;
23573;SDS011;11965;53.640;10.050;2022-12-17T11:32:34;38.02;;;37.56;;
23573;SDS011;11965;53.640;10.050;2022-12-17T11:35:34;36.25;;;35.76;;
23573;SDS011;11965;53.640;10.050;2022-12-17T11:38:33;35.67;;;35.45;;
23573;SDS011;11965;53.640;10.050;2022-12-17T11:41:24;33.37;;;33.05;;
23573;SDS011;11965;53.640;10.050;2022-12-17T11:44:33;31.71;;;31.54;;
23573;SDS011;11965;53.640;10.050;2022-12-17T11:47:33;31.56;;;31.32;;
23573;SDS011;11965;53.640;10.050;2022-12-17T11:50:31;31.60;;;31.53;;
23573;SDS011;11965;53.640;10.050;2022-12-17T11:53:29;32.50;;;31.97;;
23573;SDS011;11965;53.640;10.050;2022-12-17T11:56:29;30.75;;;30.57;;
23573;SDS011;11965;53.640;10.050;2022-12-17T11:59:24;31.85;;;31.62;;
23573;SDS011;11965;53.640;10.050;2022-12-17T12:02:16;32.56;;;32.28;;
23573;SDS011;11965;53.640;10.050;2022-12-17T12:05:29;30.60;;;30.32;;
23573;SDS011;11965;53.640;10.050;2022-12-17T12:08:25;30.16;;;29.81;;
23573;SDS011;11965;53.640;10.050;2022-12-17T12:11:16;29.13;;;28.56;;
23573;SDS011;11965;53.640;10.050;2022-12-17T12:14:13;28.29;;;28.00;;
23573;SDS011;11965;53.640;10.050;2022-12-17T12:17:26;26.85;;;26.52;;
23573;SDS011;11965;53.640;10.050;2022-12-17T12:20:31;27.33;;;27.30;;
23573;SDS011;11965;53.640;10.050;2022-12-17T12:23:33;28.95;;;28.46;;
23573;SDS011;11965;53.640;10.050;2022-12-17T12:26:32;28.55;;;28.50;;
23573;SDS011;11965;53.640;10.050;2022-12-17T12:29:29;30.02;;;29.84;;
23573;SDS011;11965;53.640;10.050;2022-12-17T12:32:27;31.19;;;31.02;;
23573;SDS011;11965;53.640;10.050;2022-12-17T12:35:23;31.74;;;31.66;;
23573;SDS011;11965;53.640;10.050;2022-12-17T12:38:15;33.27;;;32.66;;
23573;SDS011;11965;53.640;10.050;2022-12-17T12:41:06;33.45;;;33.31;;
23573;SDS011;11965;53.640;10.050;2022-12-17T12:44:05;34.34;;;34.15;;
23573;SDS011;11965;53.640;10.050;2022-12-17T12:47:01;32.64;;;32.26;;
23573;SDS011;11965;53.640;10.050;2022-12-17T12:49:57;31.72;;;31.68;;
23573;SDS011;11965;53.640;10.050;2022-12-17T12:52:51;29.89;;;29.57;;
23573;SDS011;11965;53.640;10.050;2022-12-17T12:55:36;29.45;;;29.18;;
23573;SDS011;11965;53.640;10.050;2022-12-17T12:58:23;28.73;;;28.62;;
23573;SDS011;11965;53.640;10.050;2022-12-17T13:01:11;27.95;;;27.55;;
23573;SDS011;11965;53.640;10.050;2022-12-17T13:03:56;25.36;;;25.16;;
23573;SDS011;11965;53.640;10.050;2022-12-17T13:06:55;25.95;;;25.55;;
23573;SDS011;11965;53.640;10.050;2022-12-17T13:09:35;27.94;;;27.60;;
23573;SDS011;11965;53.640;10.050;2022-12-17T13:15:13;28.06;;;27.63;;
23573;SDS011;11965;53.640;10.050;2022-12-17T13:17:56;28.24;;;27.70;;
23573;SDS011;11965;53.640;10.050;2022-12-17T13:20:32;26.29;;;25.96;;
23573;SDS011;11965;53.640;10.050;2022-12-17T13:23:04;24.92;;;24.88;;
23573;SDS011;11965;53.640;10.050;2022-12-17T13:26:01;23.17;;;23.09;;
23573;SDS011;11965;53.640;10.050;2022-12-17T13:28:43;21.17;;;20.99;;
23573;SDS011;11965;53.640;10.050;2022-12-17T13:31:16;20.00;;;19.82;;
23573;SDS011;11965;53.640;10.050;2022-12-17T13:33:50;20.31;;;20.01;;
23573;SDS011;11965;53.640;10.050;2022-12-17T13:36:33;20.80;;;20.69;;
23573;SDS011;11965;53.640;10.050;2022-12-17T13:39:13;20.46;;;20.30;;
23573;SDS011;11965;53.640;10.050;2022-12-17T13:41:55;19.19;;;19.16;;
23573;SDS011;11965;53.640;10.050;2022-12-17T13:44:22;19.22;;;19.18;;
23573;SDS011;11965;53.640;10.050;2022-12-17T13:46:52;18.83;;;18.82;;
23573;SDS011;11965;53.640;10.050;2022-12-17T13:49:22;18.87;;;18.80;;
23573;SDS011;11965;53.640;10.050;2022-12-17T13:52:00;18.77;;;18.66;;
23573;SDS011;11965;53.640;10.050;2022-12-17T13:54:29;18.97;;;18.97;;
23573;SDS011;11965;53.640;10.050;2022-12-17T13:57:05;18.68;;;18.66;;
23573;SDS011;11965;53.640;10.050;2022-12-17T13:59:32;18.96;;;18.88;;
23573;SDS011;11965;53.640;10.050;2022-12-17T14:02:00;19.11;;;18.99;;
23573;SDS011;11965;53.640;10.050;2022-12-17T14:04:29;18.96;;;18.96;;
23573;SDS011;11965;53.640;10.050;2022-12-17T14:06:57;19.11;;;18.89;;
23573;SDS011;11965;53.640;10.050;2022-12-17T14:09:29;18.56;;;18.51;;
23573;SDS011;11965;53.640;10.050;2022-12-17T14:12:00;18.93;;;18.88;;
23573;SDS011;11965;53.640;10.050;2022-12-17T14:14:50;22.71;;;22.48;;
23573;SDS011;11965;53.640;10.050;2022-12-17T14:17:22;21.07;;;20.97;;
23573;SDS011;11965;53.640;10.050;2022-12-17T14:19:55;21.75;;;21.66;;
23573;SDS011;11965;53.640;10.050;2022-12-17T14:22:27;27.88;;;27.72;;
23573;SDS011;11965;53.640;10.050;2022-12-17T14:24:59;28.11;;;27.78;;
23573;SDS011;11965;53.640;10.050;2022-12-17T14:27:30;24.38;;;24.04;;
23573;SDS011;11965;53.640;10.050;2022-12-17T14:29:59;23.95;;;23.87;;
23573;SDS011;11965;53.640;10.050;2022-12-17T14:32:32;22.20;;;22.14;;
23573;SDS011;11965;53.640;10.050;2022-12-17T14:35:03;27.29;;;26.92;;
23573;SDS011;11965;53.640;10.050;2022-12-17T14:37:30;29.77;;;29.70;;
23573;SDS011;11965;53.640;10.050;2022-12-17T14:39:59;33.01;;;32.50;;
23573;SDS011;11965;53.640;10.050;2022-12-17T14:42:29;35.21;;;35.16;;
23573;SDS011;11965;53.640;10.050;2022-12-17T14:45:03;29.29;;;29.24;;
23573;SDS011;11965;53.640;10.050;2022-12-17T14:47:51;26.72;;;26.68;;
23573;SDS011;11965;53.640;10.050;2022-12-17T14:50:26;24.55;;;24.34;;
23573;SDS011;11965;53.640;10.050;2022-12-17T14:52:57;24.20;;;23.96;;
23573;SDS011;11965;53.640;10.050;2022-12-17T14:55:34;25.40;;;25.37;;
23573;SDS011;11965;53.640;10.050;2022-12-17T14:58:07;26.09;;;25.81;;
23573;SDS011;11965;53.640;10.050;2022-12-17T15:00:42;25.22;;;25.14;;
23573;SDS011;11965;53.640;10.050;2022-12-17T15:03:17;24.61;;;24.43;;
23573;SDS011;11965;53.640;10.050;2022-12-17T15:05:49;24.37;;;24.02;;
23573;SDS011;11965;53.640;10.050;2022-12-17T15:08:18;23.77;;;23.61;;
23573;SDS011;11965;53.640;10.050;2022-12-17T15:10:46;24.59;;;24.48;;
23573;SDS011;11965;53.640;10.050;2022-12-17T15:13:13;26.33;;;26.25;;
23573;SDS011;11965;53.640;10.050;2022-12-17T15:15:40;26.86;;;26.75;;
23573;SDS011;11965;53.640;10.050;2022-12-17T15:18:07;26.46;;;26.29;;
23573;SDS011;11965;53.640;10.050;2022-12-17T15:20:34;27.24;;;26.96;;
23573;SDS011;11965;53.640;10.050;2022-12-17T15:23:03;26.46;;;26.42;;
23573;SDS011;11965;53.640;10.050;2022-12-17T15:25:30;28.39;;;28.22;;
23573;SDS011;11965;53.640;10.050;2022-12-17T15:27:57;26.83;;;26.78;;
23573;SDS011;11965;53.640;10.050;2022-12-17T15:30:23;26.57;;;26.40;;
23573;SDS011;11965;53.640;10.050;2022-12-17T15:32:50;26.89;;;26.77;;
23573;SDS011;11965;53.640;10.050;2022-12-17T15:35:17;27.33;;;27.29;;
23573;SDS011;11965;53.640;10.050;2022-12-17T15:37:44;32.35;;;31.91;;
23573;SDS011;11965;53.640;10.050;2022-12-17T15:40:12;32.70;;;32.35;;
23573;SDS011;11965;53.640;10.050;2022-12-17T15:42:39;30.29;;;30.28;;
23573;SDS011;11965;53.640;10.050;2022-12-17T15:45:24;29.28;;;29.13;;
23573;SDS011;11965;53.640;10.050;2022-12-17T15:47:51;27.18;;;27.12;;
23573;SDS011;11965;53.640;10.050;2022-12-17T15:50:17;26.03;;;25.69;;
23573;SDS011;11965;53.640;10.050;2022-12-17T15:52:44;26.62;;;26.16;;